sensor_id;sensor_type;location;lat;lon;timestamp;P1;durP1;ratioP1;P2;durP2;ratioP2
64957;SDS011;51486;50.232;19.208;2024-03-02T00:00:20;53.70;;;22.33;;
64957;SDS011;51486;50.232;19.208;2024-03-02T00:02:48;50.10;;;23.23;;
64957;SDS011;51486;50.232;19.208;2024-03-02T00:05:21;43.27;;;21.57;;
64957;SDS011;51486;50.232;19.208;2024-03-02T00:07:51;52.73;;;22.60;;
64957;SDS011;51486;50.232;19.208;2024-03-02T00:10:19;47.87;;;19.90;;
64957;SDS011;51486;50.232;19.208;2024-03-02T00:12:48;50.03;;;21.97;;
64957;SDS011;51486;50.232;19.208;2024-03-02T00:17:58;46.97;;;22.63;;
64957;SDS011;51486;50.232;19.208;2024-03-02T00:20:26;55.23;;;23.33;;
64957;SDS011;51486;50.232;19.208;2024-03-02T00:23:04;46.73;;;20.57;;
64957;SDS011;51486;50.232;19.208;2024-03-02T00:25:49;47.17;;;21.40;;
64957;SDS011;51486;50.232;19.208;2024-03-02T00:31:02;45.27;;;21.40;;
64957;SDS011;51486;50.232;19.208;2024-03-02T00:33:50;55.97;;;21.20;;
64957;SDS011;51486;50.232;19.208;2024-03-02T00:36:16;46.27;;;21.17;;
64957;SDS011;51486;50.232;19.208;2024-03-02T00:38:47;45.90;;;20.27;;
64957;SDS011;51486;50.232;19.208;2024-03-02T00:41:24;45.90;;;19.10;;
64957;SDS011;51486;50.232;19.208;2024-03-02T00:46:26;50.53;;;22.13;;
64957;SDS011;51486;50.232;19.208;2024-03-02T00:48:55;53.50;;;24.53;;
64957;SDS011;51486;50.232;19.208;2024-03-02T00:51:21;57.47;;;23.00;;
64957;SDS011;51486;50.232;19.208;2024-03-02T00:53:49;49.20;;;21.10;;
64957;SDS011;51486;50.232;19.208;2024-03-02T00:56:15;47.60;;;21.90;;
64957;SDS011;51486;50.232;19.208;2024-03-02T00:58:41;43.43;;;20.80;;
64957;SDS011;51486;50.232;19.208;2024-03-02T01:01:06;39.93;;;18.17;;
64957;SDS011;51486;50.232;19.208;2024-03-02T01:03:32;43.97;;;19.50;;
64957;SDS011;51486;50.232;19.208;2024-03-02T01:05:58;47.00;;;18.67;;
64957;SDS011;51486;50.232;19.208;2024-03-02T01:08:24;41.20;;;18.83;;
64957;SDS011;51486;50.232;19.208;2024-03-02T01:10:49;42.07;;;18.50;;
64957;SDS011;51486;50.232;19.208;2024-03-02T01:13:15;44.70;;;16.97;;
64957;SDS011;51486;50.232;19.208;2024-03-02T01:15:40;48.60;;;19.90;;
64957;SDS011;51486;50.232;19.208;2024-03-02T01:18:06;45.43;;;19.77;;
64957;SDS011;51486;50.232;19.208;2024-03-02T01:20:31;41.67;;;19.47;;
64957;SDS011;51486;50.232;19.208;2024-03-02T01:22:57;40.93;;;18.20;;
64957;SDS011;51486;50.232;19.208;2024-03-02T01:25:22;40.83;;;17.20;;
64957;SDS011;51486;50.232;19.208;2024-03-02T01:27:48;47.10;;;20.03;;
64957;SDS011;51486;50.232;19.208;2024-03-02T01:30:13;42.33;;;20.10;;
64957;SDS011;51486;50.232;19.208;2024-03-02T01:32:39;43.37;;;18.80;;
64957;SDS011;51486;50.232;19.208;2024-03-02T01:35:05;43.30;;;20.10;;
64957;SDS011;51486;50.232;19.208;2024-03-02T01:37:32;58.47;;;21.40;;
64957;SDS011;51486;50.232;19.208;2024-03-02T01:39:57;41.60;;;18.73;;
64957;SDS011;51486;50.232;19.208;2024-03-02T01:42:23;45.13;;;20.40;;
64957;SDS011;51486;50.232;19.208;2024-03-02T01:44:49;42.70;;;19.97;;
64957;SDS011;51486;50.232;19.208;2024-03-02T01:47:14;49.23;;;19.83;;
64957;SDS011;51486;50.232;19.208;2024-03-02T01:49:40;50.53;;;20.33;;
64957;SDS011;51486;50.232;19.208;2024-03-02T01:52:06;37.83;;;18.17;;
64957;SDS011;51486;50.232;19.208;2024-03-02T01:54:32;46.80;;;18.70;;
64957;SDS011;51486;50.232;19.208;2024-03-02T01:56:58;51.50;;;20.03;;
64957;SDS011;51486;50.232;19.208;2024-03-02T01:59:24;46.37;;;20.23;;
64957;SDS011;51486;50.232;19.208;2024-03-02T02:01:49;47.73;;;20.57;;
64957;SDS011;51486;50.232;19.208;2024-03-02T02:04:15;43.80;;;19.27;;
64957;SDS011;51486;50.232;19.208;2024-03-02T02:06:40;36.33;;;19.10;;
64957;SDS011;51486;50.232;19.208;2024-03-02T02:09:06;41.83;;;18.43;;
64957;SDS011;51486;50.232;19.208;2024-03-02T02:11:33;42.30;;;18.00;;
64957;SDS011;51486;50.232;19.208;2024-03-02T02:13:59;46.77;;;18.03;;
64957;SDS011;51486;50.232;19.208;2024-03-02T02:16:25;49.17;;;19.13;;
64957;SDS011;51486;50.232;19.208;2024-03-02T02:18:50;41.37;;;17.93;;
64957;SDS011;51486;50.232;19.208;2024-03-02T02:21:16;40.87;;;19.60;;
64957;SDS011;51486;50.232;19.208;2024-03-02T02:23:41;36.77;;;18.77;;
64957;SDS011;51486;50.232;19.208;2024-03-02T02:26:11;39.27;;;18.23;;
64957;SDS011;51486;50.232;19.208;2024-03-02T02:28:37;40.30;;;18.37;;
64957;SDS011;51486;50.232;19.208;2024-03-02T02:31:02;41.97;;;18.30;;
64957;SDS011;51486;50.232;19.208;2024-03-02T02:33:28;46.07;;;18.90;;
64957;SDS011;51486;50.232;19.208;2024-03-02T02:35:54;46.07;;;18.67;;
64957;SDS011;51486;50.232;19.208;2024-03-02T02:38:19;40.60;;;18.83;;
64957;SDS011;51486;50.232;19.208;2024-03-02T02:40:45;38.27;;;18.60;;
64957;SDS011;51486;50.232;19.208;2024-03-02T02:43:10;61.87;;;20.53;;
64957;SDS011;51486;50.232;19.208;2024-03-02T02:45:36;36.23;;;17.20;;
64957;SDS011;51486;50.232;19.208;2024-03-02T02:48:01;39.83;;;17.03;;
64957;SDS011;51486;50.232;19.208;2024-03-02T02:50:27;42.03;;;18.77;;
64957;SDS011;51486;50.232;19.208;2024-03-02T02:52:53;34.67;;;16.37;;
64957;SDS011;51486;50.232;19.208;2024-03-02T02:55:19;39.27;;;17.60;;
64957;SDS011;51486;50.232;19.208;2024-03-02T02:57:44;40.33;;;16.77;;
64957;SDS011;51486;50.232;19.208;2024-03-02T03:00:11;33.67;;;15.30;;
64957;SDS011;51486;50.232;19.208;2024-03-02T03:02:44;32.63;;;14.70;;
64957;SDS011;51486;50.232;19.208;2024-03-02T03:05:11;32.63;;;15.47;;
64957;SDS011;51486;50.232;19.208;2024-03-02T03:07:39;39.27;;;15.63;;
64957;SDS011;51486;50.232;19.208;2024-03-02T03:10:06;38.20;;;18.07;;
64957;SDS011;51486;50.232;19.208;2024-03-02T03:12:33;34.20;;;16.53;;
64957;SDS011;51486;50.232;19.208;2024-03-02T03:14:59;46.60;;;16.73;;
64957;SDS011;51486;50.232;19.208;2024-03-02T03:17:24;33.00;;;16.03;;
64957;SDS011;51486;50.232;19.208;2024-03-02T03:19:50;44.17;;;16.73;;
64957;SDS011;51486;50.232;19.208;2024-03-02T03:22:15;48.43;;;16.50;;
64957;SDS011;51486;50.232;19.208;2024-03-02T03:24:41;39.13;;;16.03;;
64957;SDS011;51486;50.232;19.208;2024-03-02T03:27:06;41.87;;;17.40;;
64957;SDS011;51486;50.232;19.208;2024-03-02T03:29:32;36.20;;;16.73;;
64957;SDS011;51486;50.232;19.208;2024-03-02T03:31:57;34.20;;;15.70;;
64957;SDS011;51486;50.232;19.208;2024-03-02T03:34:23;37.77;;;15.97;;
64957;SDS011;51486;50.232;19.208;2024-03-02T03:36:48;34.20;;;16.50;;
64957;SDS011;51486;50.232;19.208;2024-03-02T03:39:14;33.70;;;15.93;;
64957;SDS011;51486;50.232;19.208;2024-03-02T03:41:42;54.67;;;17.17;;
64957;SDS011;51486;50.232;19.208;2024-03-02T03:44:08;33.70;;;15.00;;
64957;SDS011;51486;50.232;19.208;2024-03-02T03:46:33;34.30;;;15.33;;
64957;SDS011;51486;50.232;19.208;2024-03-02T03:48:58;46.13;;;17.23;;
64957;SDS011;51486;50.232;19.208;2024-03-02T03:51:24;38.83;;;17.20;;
64957;SDS011;51486;50.232;19.208;2024-03-02T03:53:49;33.17;;;16.77;;
64957;SDS011;51486;50.232;19.208;2024-03-02T03:56:15;36.33;;;17.57;;
64957;SDS011;51486;50.232;19.208;2024-03-02T03:58:40;42.60;;;17.70;;
64957;SDS011;51486;50.232;19.208;2024-03-02T04:01:06;37.50;;;16.83;;
64957;SDS011;51486;50.232;19.208;2024-03-02T04:03:31;38.30;;;16.90;;
64957;SDS011;51486;50.232;19.208;2024-03-02T04:05:57;40.90;;;16.63;;
64957;SDS011;51486;50.232;19.208;2024-03-02T04:08:22;35.47;;;16.70;;
64957;SDS011;51486;50.232;19.208;2024-03-02T04:10:48;41.43;;;16.20;;
64957;SDS011;51486;50.232;19.208;2024-03-02T04:13:13;35.80;;;16.60;;
64957;SDS011;51486;50.232;19.208;2024-03-02T04:15:39;40.73;;;16.27;;
64957;SDS011;51486;50.232;19.208;2024-03-02T04:18:05;42.00;;;16.30;;
64957;SDS011;51486;50.232;19.208;2024-03-02T04:20:31;41.40;;;16.83;;
64957;SDS011;51486;50.232;19.208;2024-03-02T04:22:57;45.77;;;17.20;;
64957;SDS011;51486;50.232;19.208;2024-03-02T04:25:22;55.20;;;17.50;;
64957;SDS011;51486;50.232;19.208;2024-03-02T04:27:48;54.53;;;18.77;;
64957;SDS011;51486;50.232;19.208;2024-03-02T04:30:13;52.63;;;17.87;;
64957;SDS011;51486;50.232;19.208;2024-03-02T04:32:39;42.23;;;17.50;;
64957;SDS011;51486;50.232;19.208;2024-03-02T04:35:05;42.40;;;17.27;;
64957;SDS011;51486;50.232;19.208;2024-03-02T04:37:34;55.50;;;18.80;;
64957;SDS011;51486;50.232;19.208;2024-03-02T04:39:59;42.73;;;17.87;;
64957;SDS011;51486;50.232;19.208;2024-03-02T04:42:25;36.00;;;17.73;;
64957;SDS011;51486;50.232;19.208;2024-03-02T04:44:50;47.27;;;19.47;;
64957;SDS011;51486;50.232;19.208;2024-03-02T04:47:16;41.53;;;16.30;;
64957;SDS011;51486;50.232;19.208;2024-03-02T04:49:41;67.93;;;19.13;;
64957;SDS011;51486;50.232;19.208;2024-03-02T04:52:07;50.90;;;18.70;;
64957;SDS011;51486;50.232;19.208;2024-03-02T04:54:32;41.33;;;17.13;;
64957;SDS011;51486;50.232;19.208;2024-03-02T04:57:00;40.30;;;17.97;;
64957;SDS011;51486;50.232;19.208;2024-03-02T04:59:25;53.60;;;17.43;;
64957;SDS011;51486;50.232;19.208;2024-03-02T05:01:51;43.67;;;17.10;;
64957;SDS011;51486;50.232;19.208;2024-03-02T05:04:16;42.60;;;16.83;;
64957;SDS011;51486;50.232;19.208;2024-03-02T05:06:43;41.07;;;16.77;;
64957;SDS011;51486;50.232;19.208;2024-03-02T05:09:08;38.50;;;16.77;;
64957;SDS011;51486;50.232;19.208;2024-03-02T05:11:34;38.23;;;14.83;;
64957;SDS011;51486;50.232;19.208;2024-03-02T05:14:03;39.83;;;16.47;;
64957;SDS011;51486;50.232;19.208;2024-03-02T05:16:28;37.03;;;15.03;;
64957;SDS011;51486;50.232;19.208;2024-03-02T05:18:54;30.00;;;14.37;;
64957;SDS011;51486;50.232;19.208;2024-03-02T05:21:19;37.00;;;14.90;;
64957;SDS011;51486;50.232;19.208;2024-03-02T05:23:45;33.13;;;15.87;;
64957;SDS011;51486;50.232;19.208;2024-03-02T05:26:10;44.37;;;16.80;;
64957;SDS011;51486;50.232;19.208;2024-03-02T05:28:39;35.53;;;16.63;;
64957;SDS011;51486;50.232;19.208;2024-03-02T05:31:04;39.50;;;14.70;;
64957;SDS011;51486;50.232;19.208;2024-03-02T05:33:30;44.17;;;16.17;;
64957;SDS011;51486;50.232;19.208;2024-03-02T05:35:57;33.57;;;17.10;;
64957;SDS011;51486;50.232;19.208;2024-03-02T05:38:22;35.93;;;15.63;;
64957;SDS011;51486;50.232;19.208;2024-03-02T05:40:48;41.47;;;18.13;;
64957;SDS011;51486;50.232;19.208;2024-03-02T05:43:13;33.83;;;15.60;;
64957;SDS011;51486;50.232;19.208;2024-03-02T05:45:39;36.50;;;16.57;;
64957;SDS011;51486;50.232;19.208;2024-03-02T05:48:05;53.90;;;21.67;;
64957;SDS011;51486;50.232;19.208;2024-03-02T05:50:34;43.37;;;19.40;;
64957;SDS011;51486;50.232;19.208;2024-03-02T05:53:00;38.63;;;17.43;;
64957;SDS011;51486;50.232;19.208;2024-03-02T05:55:25;39.40;;;16.57;;
64957;SDS011;51486;50.232;19.208;2024-03-02T05:57:51;36.43;;;16.17;;
64957;SDS011;51486;50.232;19.208;2024-03-02T06:00:31;40.50;;;15.77;;
64957;SDS011;51486;50.232;19.208;2024-03-02T06:02:57;44.77;;;16.97;;
64957;SDS011;51486;50.232;19.208;2024-03-02T06:05:22;37.67;;;15.03;;
64957;SDS011;51486;50.232;19.208;2024-03-02T06:07:48;37.70;;;16.20;;
64957;SDS011;51486;50.232;19.208;2024-03-02T06:10:14;38.80;;;17.57;;
64957;SDS011;51486;50.232;19.208;2024-03-02T06:12:39;39.17;;;16.30;;
64957;SDS011;51486;50.232;19.208;2024-03-02T06:15:05;43.00;;;18.37;;
64957;SDS011;51486;50.232;19.208;2024-03-02T06:17:31;38.03;;;15.87;;
64957;SDS011;51486;50.232;19.208;2024-03-02T06:19:56;48.17;;;20.17;;
64957;SDS011;51486;50.232;19.208;2024-03-02T06:22:22;45.03;;;20.17;;
64957;SDS011;51486;50.232;19.208;2024-03-02T06:24:50;49.20;;;21.20;;
64957;SDS011;51486;50.232;19.208;2024-03-02T06:27:15;62.33;;;22.90;;
64957;SDS011;51486;50.232;19.208;2024-03-02T06:29:41;43.10;;;18.07;;
64957;SDS011;51486;50.232;19.208;2024-03-02T06:32:07;44.53;;;19.73;;
64957;SDS011;51486;50.232;19.208;2024-03-02T06:34:32;44.87;;;19.30;;
64957;SDS011;51486;50.232;19.208;2024-03-02T06:36:58;47.13;;;18.97;;
64957;SDS011;51486;50.232;19.208;2024-03-02T06:39:23;48.83;;;19.57;;
64957;SDS011;51486;50.232;19.208;2024-03-02T06:41:49;48.13;;;19.13;;
64957;SDS011;51486;50.232;19.208;2024-03-02T06:44:14;42.13;;;17.93;;
64957;SDS011;51486;50.232;19.208;2024-03-02T06:46:39;45.77;;;19.63;;
64957;SDS011;51486;50.232;19.208;2024-03-02T06:49:05;38.30;;;17.60;;
64957;SDS011;51486;50.232;19.208;2024-03-02T06:51:30;57.07;;;18.33;;
64957;SDS011;51486;50.232;19.208;2024-03-02T06:53:56;41.17;;;17.00;;
64957;SDS011;51486;50.232;19.208;2024-03-02T06:56:21;35.83;;;16.33;;
64957;SDS011;51486;50.232;19.208;2024-03-02T06:58:47;47.77;;;17.83;;
64957;SDS011;51486;50.232;19.208;2024-03-02T07:01:12;44.67;;;18.57;;
64957;SDS011;51486;50.232;19.208;2024-03-02T07:03:38;33.03;;;16.70;;
64957;SDS011;51486;50.232;19.208;2024-03-02T07:06:06;39.60;;;17.90;;
64957;SDS011;51486;50.232;19.208;2024-03-02T07:08:31;34.93;;;15.20;;
64957;SDS011;51486;50.232;19.208;2024-03-02T07:10:57;28.90;;;14.93;;
64957;SDS011;51486;50.232;19.208;2024-03-02T07:13:22;36.97;;;15.60;;
64957;SDS011;51486;50.232;19.208;2024-03-02T07:15:48;26.53;;;13.73;;
64957;SDS011;51486;50.232;19.208;2024-03-02T07:18:29;38.03;;;15.97;;
64957;SDS011;51486;50.232;19.208;2024-03-02T07:20:58;35.20;;;14.43;;
64957;SDS011;51486;50.232;19.208;2024-03-02T07:23:25;31.47;;;14.13;;
64957;SDS011;51486;50.232;19.208;2024-03-02T07:25:52;33.13;;;14.33;;
64957;SDS011;51486;50.232;19.208;2024-03-02T07:28:22;40.80;;;18.47;;
64957;SDS011;51486;50.232;19.208;2024-03-02T07:30:57;36.03;;;16.43;;
64957;SDS011;51486;50.232;19.208;2024-03-02T07:33:26;46.80;;;21.17;;
64957;SDS011;51486;50.232;19.208;2024-03-02T07:35:51;46.47;;;20.63;;
64957;SDS011;51486;50.232;19.208;2024-03-02T07:38:18;46.23;;;19.60;;
64957;SDS011;51486;50.232;19.208;2024-03-02T07:40:44;45.40;;;22.37;;
64957;SDS011;51486;50.232;19.208;2024-03-02T07:43:09;62.80;;;22.03;;
64957;SDS011;51486;50.232;19.208;2024-03-02T07:45:35;59.43;;;24.23;;
64957;SDS011;51486;50.232;19.208;2024-03-02T07:48:03;51.30;;;23.93;;
64957;SDS011;51486;50.232;19.208;2024-03-02T07:50:31;42.47;;;20.43;;
64957;SDS011;51486;50.232;19.208;2024-03-02T07:52:59;39.27;;;20.83;;
64957;SDS011;51486;50.232;19.208;2024-03-02T07:55:28;47.53;;;23.20;;
64957;SDS011;51486;50.232;19.208;2024-03-02T07:57:54;52.17;;;21.03;;
64957;SDS011;51486;50.232;19.208;2024-03-02T08:00:20;49.93;;;19.70;;
64957;SDS011;51486;50.232;19.208;2024-03-02T08:02:47;49.33;;;18.83;;
64957;SDS011;51486;50.232;19.208;2024-03-02T08:05:13;58.50;;;19.93;;
64957;SDS011;51486;50.232;19.208;2024-03-02T08:07:38;49.13;;;22.13;;
64957;SDS011;51486;50.232;19.208;2024-03-02T08:10:04;47.43;;;21.70;;
64957;SDS011;51486;50.232;19.208;2024-03-02T08:12:30;49.00;;;22.57;;
64957;SDS011;51486;50.232;19.208;2024-03-02T08:14:56;49.30;;;22.83;;
64957;SDS011;51486;50.232;19.208;2024-03-02T08:17:21;55.67;;;23.77;;
64957;SDS011;51486;50.232;19.208;2024-03-02T08:19:47;57.13;;;23.63;;
64957;SDS011;51486;50.232;19.208;2024-03-02T08:22:14;44.97;;;23.13;;
64957;SDS011;51486;50.232;19.208;2024-03-02T08:24:40;52.43;;;23.30;;
64957;SDS011;51486;50.232;19.208;2024-03-02T08:27:05;45.57;;;21.87;;
64957;SDS011;51486;50.232;19.208;2024-03-02T08:29:31;48.40;;;21.60;;
64957;SDS011;51486;50.232;19.208;2024-03-02T08:31:56;43.67;;;20.50;;
64957;SDS011;51486;50.232;19.208;2024-03-02T08:34:22;47.97;;;21.77;;
64957;SDS011;51486;50.232;19.208;2024-03-02T08:36:47;46.33;;;21.73;;
64957;SDS011;51486;50.232;19.208;2024-03-02T08:39:13;43.87;;;20.47;;
64957;SDS011;51486;50.232;19.208;2024-03-02T08:41:42;47.20;;;20.40;;
64957;SDS011;51486;50.232;19.208;2024-03-02T08:44:09;44.53;;;21.17;;
64957;SDS011;51486;50.232;19.208;2024-03-02T08:46:34;46.83;;;20.63;;
64957;SDS011;51486;50.232;19.208;2024-03-02T08:49:00;42.83;;;17.27;;
64957;SDS011;51486;50.232;19.208;2024-03-02T08:51:25;34.93;;;18.33;;
64957;SDS011;51486;50.232;19.208;2024-03-02T08:53:51;44.23;;;18.20;;
64957;SDS011;51486;50.232;19.208;2024-03-02T08:56:16;34.53;;;16.93;;
64957;SDS011;51486;50.232;19.208;2024-03-02T08:58:42;33.37;;;16.83;;
64957;SDS011;51486;50.232;19.208;2024-03-02T09:01:08;41.03;;;16.17;;
64957;SDS011;51486;50.232;19.208;2024-03-02T09:03:34;32.53;;;17.37;;
64957;SDS011;51486;50.232;19.208;2024-03-02T09:06:00;34.13;;;17.17;;
64957;SDS011;51486;50.232;19.208;2024-03-02T09:08:26;36.70;;;17.20;;
64957;SDS011;51486;50.232;19.208;2024-03-02T09:10:51;36.67;;;16.20;;
64957;SDS011;51486;50.232;19.208;2024-03-02T09:13:17;34.53;;;17.00;;
64957;SDS011;51486;50.232;19.208;2024-03-02T09:15:42;33.20;;;16.37;;
64957;SDS011;51486;50.232;19.208;2024-03-02T09:18:09;33.27;;;16.27;;
64957;SDS011;51486;50.232;19.208;2024-03-02T09:20:35;35.77;;;17.10;;
64957;SDS011;51486;50.232;19.208;2024-03-02T09:23:00;40.87;;;16.40;;
64957;SDS011;51486;50.232;19.208;2024-03-02T09:25:26;42.97;;;17.57;;
64957;SDS011;51486;50.232;19.208;2024-03-02T09:27:51;38.00;;;16.93;;
64957;SDS011;51486;50.232;19.208;2024-03-02T09:30:17;38.60;;;17.60;;
64957;SDS011;51486;50.232;19.208;2024-03-02T09:32:42;43.20;;;17.37;;
64957;SDS011;51486;50.232;19.208;2024-03-02T09:35:08;34.37;;;16.93;;
64957;SDS011;51486;50.232;19.208;2024-03-02T09:37:34;39.10;;;18.33;;
64957;SDS011;51486;50.232;19.208;2024-03-02T09:40:00;41.80;;;18.47;;
64957;SDS011;51486;50.232;19.208;2024-03-02T09:42:26;37.73;;;16.90;;
64957;SDS011;51486;50.232;19.208;2024-03-02T09:44:52;35.53;;;16.17;;
64957;SDS011;51486;50.232;19.208;2024-03-02T09:47:18;38.30;;;17.80;;
64957;SDS011;51486;50.232;19.208;2024-03-02T09:49:43;41.40;;;16.87;;
64957;SDS011;51486;50.232;19.208;2024-03-02T09:52:09;39.60;;;16.80;;
64957;SDS011;51486;50.232;19.208;2024-03-02T09:54:35;32.83;;;16.37;;
64957;SDS011;51486;50.232;19.208;2024-03-02T09:57:04;38.50;;;17.13;;
64957;SDS011;51486;50.232;19.208;2024-03-02T09:59:29;41.43;;;17.77;;
64957;SDS011;51486;50.232;19.208;2024-03-02T10:01:58;34.83;;;15.77;;
64957;SDS011;51486;50.232;19.208;2024-03-02T10:04:28;36.47;;;15.23;;
64957;SDS011;51486;50.232;19.208;2024-03-02T10:07:10;38.10;;;16.70;;
64957;SDS011;51486;50.232;19.208;2024-03-02T10:09:39;34.90;;;15.30;;
64957;SDS011;51486;50.232;19.208;2024-03-02T10:12:06;31.77;;;16.40;;
64957;SDS011;51486;50.232;19.208;2024-03-02T10:14:33;29.13;;;14.37;;
64957;SDS011;51486;50.232;19.208;2024-03-02T10:17:06;33.03;;;14.40;;
64957;SDS011;51486;50.232;19.208;2024-03-02T10:19:32;34.47;;;14.53;;
64957;SDS011;51486;50.232;19.208;2024-03-02T10:22:00;25.50;;;12.73;;
64957;SDS011;51486;50.232;19.208;2024-03-02T10:24:27;34.93;;;15.43;;
64957;SDS011;51486;50.232;19.208;2024-03-02T10:26:59;35.00;;;12.87;;
64957;SDS011;51486;50.232;19.208;2024-03-02T10:29:24;24.60;;;13.57;;
64957;SDS011;51486;50.232;19.208;2024-03-02T10:31:53;27.90;;;12.40;;
64957;SDS011;51486;50.232;19.208;2024-03-02T10:34:19;25.23;;;12.67;;
64957;SDS011;51486;50.232;19.208;2024-03-02T10:36:46;28.83;;;12.87;;
64957;SDS011;51486;50.232;19.208;2024-03-02T10:39:13;32.43;;;14.17;;
64957;SDS011;51486;50.232;19.208;2024-03-02T10:41:39;31.83;;;14.93;;
64957;SDS011;51486;50.232;19.208;2024-03-02T10:44:08;28.17;;;14.13;;
64957;SDS011;51486;50.232;19.208;2024-03-02T10:46:37;33.90;;;14.90;;
64957;SDS011;51486;50.232;19.208;2024-03-02T10:49:03;29.30;;;13.90;;
64957;SDS011;51486;50.232;19.208;2024-03-02T10:51:30;32.80;;;14.63;;
64957;SDS011;51486;50.232;19.208;2024-03-02T10:54:00;24.10;;;13.07;;
64957;SDS011;51486;50.232;19.208;2024-03-02T10:56:31;33.87;;;14.50;;
64957;SDS011;51486;50.232;19.208;2024-03-02T11:01:50;30.93;;;13.87;;
64957;SDS011;51486;50.232;19.208;2024-03-02T11:04:16;32.90;;;14.77;;
64957;SDS011;51486;50.232;19.208;2024-03-02T11:06:54;33.00;;;15.50;;
64957;SDS011;51486;50.232;19.208;2024-03-02T11:09:25;42.27;;;16.57;;
64957;SDS011;51486;50.232;19.208;2024-03-02T11:12:02;36.97;;;14.63;;
64957;SDS011;51486;50.232;19.208;2024-03-02T11:14:34;28.33;;;14.53;;
64957;SDS011;51486;50.232;19.208;2024-03-02T11:17:05;40.20;;;13.87;;
64957;SDS011;51486;50.232;19.208;2024-03-02T11:19:31;32.47;;;13.57;;
64957;SDS011;51486;50.232;19.208;2024-03-02T11:21:57;33.77;;;14.23;;
64957;SDS011;51486;50.232;19.208;2024-03-02T11:26:49;29.83;;;13.83;;
64957;SDS011;51486;50.232;19.208;2024-03-02T11:30:03;32.93;;;15.63;;
64957;SDS011;51486;50.232;19.208;2024-03-02T11:34:42;33.90;;;14.80;;
64957;SDS011;51486;50.232;19.208;2024-03-02T11:37:11;23.93;;;13.63;;
64957;SDS011;51486;50.232;19.208;2024-03-02T11:39:37;29.77;;;14.70;;
64957;SDS011;51486;50.232;19.208;2024-03-02T11:42:07;34.93;;;14.27;;
64957;SDS011;51486;50.232;19.208;2024-03-02T11:44:36;25.47;;;13.23;;
64957;SDS011;51486;50.232;19.208;2024-03-02T11:47:06;29.67;;;14.10;;
64957;SDS011;51486;50.232;19.208;2024-03-02T11:52:06;37.43;;;15.40;;
64957;SDS011;51486;50.232;19.208;2024-03-02T11:54:33;30.73;;;15.47;;
64957;SDS011;51486;50.232;19.208;2024-03-02T11:57:02;35.87;;;16.23;;
64957;SDS011;51486;50.232;19.208;2024-03-02T11:59:28;33.60;;;14.53;;
64957;SDS011;51486;50.232;19.208;2024-03-02T12:01:54;31.50;;;14.00;;
64957;SDS011;51486;50.232;19.208;2024-03-02T12:04:21;28.83;;;14.30;;
64957;SDS011;51486;50.232;19.208;2024-03-02T12:06:47;32.67;;;14.17;;
64957;SDS011;51486;50.232;19.208;2024-03-02T12:09:19;29.93;;;14.10;;
64957;SDS011;51486;50.232;19.208;2024-03-02T12:11:45;33.73;;;13.97;;
64957;SDS011;51486;50.232;19.208;2024-03-02T12:14:11;33.83;;;13.20;;
64957;SDS011;51486;50.232;19.208;2024-03-02T12:16:43;30.13;;;13.33;;
64957;SDS011;51486;50.232;19.208;2024-03-02T12:19:09;38.60;;;14.47;;
64957;SDS011;51486;50.232;19.208;2024-03-02T12:21:35;34.13;;;13.47;;
64957;SDS011;51486;50.232;19.208;2024-03-02T12:24:01;33.40;;;13.33;;
64957;SDS011;51486;50.232;19.208;2024-03-02T12:26:27;30.00;;;11.03;;
64957;SDS011;51486;50.232;19.208;2024-03-02T12:28:53;30.77;;;14.07;;
64957;SDS011;51486;50.232;19.208;2024-03-02T12:31:19;34.37;;;15.57;;
64957;SDS011;51486;50.232;19.208;2024-03-02T12:33:45;31.47;;;13.80;;
64957;SDS011;51486;50.232;19.208;2024-03-02T12:36:13;32.33;;;13.97;;
64957;SDS011;51486;50.232;19.208;2024-03-02T12:38:43;26.03;;;11.57;;
64957;SDS011;51486;50.232;19.208;2024-03-02T12:41:10;28.83;;;11.87;;
64957;SDS011;51486;50.232;19.208;2024-03-02T12:43:35;29.63;;;13.13;;
64957;SDS011;51486;50.232;19.208;2024-03-02T12:46:03;25.20;;;13.23;;
64957;SDS011;51486;50.232;19.208;2024-03-02T12:48:29;29.27;;;13.70;;
64957;SDS011;51486;50.232;19.208;2024-03-02T12:50:54;29.37;;;13.30;;
64957;SDS011;51486;50.232;19.208;2024-03-02T12:53:21;24.03;;;12.17;;
64957;SDS011;51486;50.232;19.208;2024-03-02T12:55:46;27.67;;;12.63;;
64957;SDS011;51486;50.232;19.208;2024-03-02T12:58:19;24.23;;;11.33;;
64957;SDS011;51486;50.232;19.208;2024-03-02T13:00:48;28.93;;;12.00;;
64957;SDS011;51486;50.232;19.208;2024-03-02T13:03:14;28.30;;;11.70;;
64957;SDS011;51486;50.232;19.208;2024-03-02T13:05:40;26.57;;;12.13;;
64957;SDS011;51486;50.232;19.208;2024-03-02T13:08:06;22.17;;;10.53;;
64957;SDS011;51486;50.232;19.208;2024-03-02T13:10:32;27.97;;;11.30;;
64957;SDS011;51486;50.232;19.208;2024-03-02T13:12:58;31.67;;;12.60;;
64957;SDS011;51486;50.232;19.208;2024-03-02T13:15:26;24.67;;;12.30;;
64957;SDS011;51486;50.232;19.208;2024-03-02T13:17:52;26.73;;;11.57;;
64957;SDS011;51486;50.232;19.208;2024-03-02T13:20:17;20.83;;;11.60;;
64957;SDS011;51486;50.232;19.208;2024-03-02T13:22:44;21.67;;;11.17;;
64957;SDS011;51486;50.232;19.208;2024-03-02T13:25:09;25.33;;;12.20;;
64957;SDS011;51486;50.232;19.208;2024-03-02T13:27:36;30.03;;;12.83;;
64957;SDS011;51486;50.232;19.208;2024-03-02T13:30:02;27.67;;;13.63;;
64957;SDS011;51486;50.232;19.208;2024-03-02T13:32:28;29.50;;;14.70;;
64957;SDS011;51486;50.232;19.208;2024-03-02T13:34:53;33.70;;;14.17;;
64957;SDS011;51486;50.232;19.208;2024-03-02T13:37:20;26.47;;;13.70;;
64957;SDS011;51486;50.232;19.208;2024-03-02T13:39:46;31.53;;;13.70;;
64957;SDS011;51486;50.232;19.208;2024-03-02T13:42:11;28.03;;;15.17;;
64957;SDS011;51486;50.232;19.208;2024-03-02T13:44:40;31.30;;;14.83;;
64957;SDS011;51486;50.232;19.208;2024-03-02T13:47:05;33.80;;;14.93;;
64957;SDS011;51486;50.232;19.208;2024-03-02T13:49:31;32.93;;;12.77;;
64957;SDS011;51486;50.232;19.208;2024-03-02T13:52:06;31.63;;;13.77;;
64957;SDS011;51486;50.232;19.208;2024-03-02T13:54:44;25.47;;;11.87;;
64957;SDS011;51486;50.232;19.208;2024-03-02T13:57:11;26.07;;;10.60;;
64957;SDS011;51486;50.232;19.208;2024-03-02T13:59:37;30.67;;;12.43;;
64957;SDS011;51486;50.232;19.208;2024-03-02T14:02:04;22.50;;;10.70;;
64957;SDS011;51486;50.232;19.208;2024-03-02T14:04:31;22.07;;;9.83;;
64957;SDS011;51486;50.232;19.208;2024-03-02T14:06:58;19.83;;;10.37;;
64957;SDS011;51486;50.232;19.208;2024-03-02T14:09:23;24.37;;;10.60;;
64957;SDS011;51486;50.232;19.208;2024-03-02T14:11:49;24.80;;;9.80;;
64957;SDS011;51486;50.232;19.208;2024-03-02T14:14:16;24.80;;;10.97;;
64957;SDS011;51486;50.232;19.208;2024-03-02T14:16:42;17.50;;;9.57;;
64957;SDS011;51486;50.232;19.208;2024-03-02T14:19:07;18.97;;;8.87;;
64957;SDS011;51486;50.232;19.208;2024-03-02T14:21:34;18.13;;;8.57;;
64957;SDS011;51486;50.232;19.208;2024-03-02T14:24:00;20.80;;;9.97;;